createdAt,value
2023-05-19T00:03:23.187Z,2.90
2023-05-19T00:08:27.541Z,3.20
2023-05-19T00:13:32.882Z,2.80
2023-05-19T00:18:36.504Z,2.57
2023-05-19T00:23:40.003Z,3.17
2023-05-19T00:28:44.576Z,2.33
2023-05-19T00:33:47.689Z,2.80
2023-05-19T00:38:51.599Z,2.70
2023-05-19T00:43:56.602Z,2.83
2023-05-19T00:49:00.055Z,2.90
2023-05-19T00:54:03.518Z,2.57
2023-05-19T00:59:08.757Z,3.00
2023-05-19T01:04:17.157Z,2.60
2023-05-19T01:09:21.218Z,2.80
2023-05-19T01:14:26.117Z,2.83
2023-05-19T01:19:48.551Z,3.07
2023-05-19T01:25:21.234Z,2.57
2023-05-19T01:30:31.545Z,3.20
2023-05-19T01:35:37.590Z,2.53
2023-05-19T01:40:42.245Z,3.03
2023-05-19T01:45:47.916Z,3.20
2023-05-19T01:50:51.422Z,3.23
2023-05-19T01:55:56.421Z,2.70
2023-05-19T02:01:09.176Z,2.80
2023-05-19T02:06:24.128Z,3.10
2023-05-19T02:11:36.666Z,3.60
2023-05-19T02:16:46.344Z,3.57
2023-05-19T02:21:49.768Z,3.10
2023-05-19T02:26:54.033Z,3.17
2023-05-19T02:31:58.828Z,3.37
2023-05-19T02:37:02.390Z,3.37
2023-05-19T02:42:06.145Z,3.13
2023-05-19T02:47:10.630Z,2.93
2023-05-19T02:52:14.206Z,3.30
2023-05-19T02:57:17.251Z,3.23
2023-05-19T03:02:22.231Z,3.30
2023-05-19T03:07:25.606Z,3.50
2023-05-19T03:12:28.702Z,2.93
2023-05-19T03:17:34.593Z,3.10
2023-05-19T03:22:37.803Z,3.73
2023-05-19T03:27:41.391Z,3.80
2023-05-19T03:32:46.020Z,3.30
2023-05-19T03:37:49.551Z,3.03
2023-05-19T03:42:54.667Z,3.80
2023-05-19T03:47:59.117Z,3.30
2023-05-19T03:53:02.788Z,3.40
2023-05-19T03:58:06.906Z,3.60
2023-05-19T04:03:11.895Z,3.50
2023-05-19T04:08:15.185Z,3.60
2023-05-19T04:13:18.713Z,3.30
2023-05-19T04:18:23.116Z,3.73
2023-05-19T04:23:26.573Z,3.50
2023-05-19T04:28:29.847Z,3.63
2023-05-19T04:33:34.617Z,3.23
2023-05-19T04:38:40.266Z,3.50
2023-05-19T04:43:44.892Z,3.70
2023-05-19T04:48:50.331Z,4.37
2023-05-19T04:53:54.202Z,3.20
2023-05-19T04:58:57.237Z,3.30
2023-05-19T05:04:02.529Z,3.67
2023-05-19T05:09:05.889Z,3.53
2023-05-19T05:14:09.809Z,3.60
2023-05-19T05:19:14.900Z,3.50
2023-05-19T05:24:18.577Z,3.73
2023-05-19T05:29:22.062Z,3.63
2023-05-19T05:34:26.850Z,4.07
2023-05-19T05:39:30.345Z,4.23
2023-05-19T05:44:35.814Z,3.93
2023-05-19T05:49:41.848Z,4.07
2023-05-19T05:54:46.268Z,3.90
2023-05-19T05:59:50.652Z,3.30
2023-05-19T06:04:55.652Z,4.27
2023-05-19T06:09:58.724Z,3.50
2023-05-19T06:15:03.667Z,3.70
2023-05-19T06:20:10.094Z,3.87
2023-05-19T06:25:13.946Z,3.27
2023-05-19T06:30:17.283Z,3.33
2023-05-19T06:35:21.943Z,3.20
2023-05-19T06:40:25.077Z,2.97
2023-05-19T06:45:28.523Z,3.30
2023-05-19T06:50:33.228Z,3.00
2023-05-19T06:55:43.925Z,3.23
2023-05-19T07:00:53.982Z,2.70
2023-05-19T07:05:58.921Z,2.57
2023-05-19T07:11:02.378Z,2.47
2023-05-19T07:16:06.225Z,2.50
2023-05-19T07:21:10.604Z,2.70
2023-05-19T07:26:14.092Z,2.73
2023-05-19T07:31:18.338Z,2.50
2023-05-19T07:36:22.798Z,2.20
2023-05-19T07:41:26.188Z,2.40
2023-05-19T07:46:29.338Z,2.37
2023-05-19T07:51:33.908Z,2.20
2023-05-19T07:56:37.054Z,2.40
2023-05-19T08:01:40.139Z,2.17
2023-05-19T08:06:44.627Z,2.30
2023-05-19T08:11:47.858Z,2.10
2023-05-19T08:16:51.695Z,2.10
2023-05-19T08:21:56.185Z,2.30
2023-05-19T08:26:59.285Z,2.20
2023-05-19T08:32:03.077Z,2.30
2023-05-19T08:37:07.680Z,2.38
2023-05-19T08:42:11.467Z,2.65
2023-05-19T08:47:16.077Z,1.90
2023-05-19T08:52:32.359Z,1.70
2023-05-19T08:57:35.787Z,1.80
2023-05-19T09:02:50.387Z,2.03
2023-05-19T09:08:05.481Z,2.22
2023-05-19T09:13:08.604Z,2.00
2023-05-19T09:18:13.099Z,1.83
2023-05-19T09:23:18.829Z,2.20
2023-05-19T09:28:26.369Z,2.30
2023-05-19T09:33:30.635Z,1.98
2023-05-19T09:38:36.892Z,2.13
2023-05-19T09:43:40.323Z,1.88
2023-05-19T09:48:44.226Z,2.30
2023-05-19T09:53:49.455Z,2.10
2023-05-19T09:58:53.858Z,2.20
2023-05-19T10:03:57.334Z,2.03
2023-05-19T10:09:02.670Z,2.25
2023-05-19T10:14:06.655Z,2.20
2023-05-19T10:19:10.414Z,1.98
2023-05-19T10:24:14.886Z,2.10
2023-05-19T10:29:24.048Z,2.22
2023-05-19T10:34:50.235Z,2.20
2023-05-19T10:39:55.558Z,1.73
2023-05-19T10:45:06.825Z,1.73
2023-05-19T10:50:11.106Z,2.13
2023-05-19T10:55:17.452Z,2.30
2023-05-19T11:00:28.825Z,2.03
2023-05-19T11:05:32.202Z,2.10
2023-05-19T11:10:36.856Z,1.85
2023-05-19T11:15:43.772Z,2.10
2023-05-19T11:20:58.547Z,1.92
2023-05-19T11:26:04.153Z,2.15
2023-05-19T11:31:10.714Z,2.30
2023-05-19T11:36:14.052Z,2.10
2023-05-19T11:41:20.759Z,2.20
2023-05-19T11:46:24.183Z,2.10
2023-05-19T11:51:27.429Z,2.17
2023-05-19T11:56:40.944Z,2.10
2023-05-19T12:01:44.126Z,2.42
2023-05-19T12:06:49.770Z,2.53
2023-05-19T12:11:56.094Z,2.33
2023-05-19T12:16:59.424Z,2.20
2023-05-19T12:22:04.052Z,2.38
2023-05-19T12:27:12.819Z,2.13
2023-05-19T12:32:16.476Z,2.10
2023-05-19T12:37:20.421Z,2.22
2023-05-19T12:42:30.874Z,2.28
2023-05-19T12:47:35.785Z,2.25
2023-05-19T12:52:43.651Z,2.67
2023-05-19T12:57:51.510Z,2.55
2023-05-19T13:03:00.470Z,2.22
2023-05-19T13:08:06.900Z,2.47
2023-05-19T13:13:11.492Z,2.58
2023-05-19T13:18:15.477Z,2.60
2023-05-19T13:23:18.607Z,2.60
2023-05-19T13:28:23.743Z,2.80
2023-05-19T13:33:26.789Z,2.60
2023-05-19T13:38:30.538Z,2.33
2023-05-19T13:43:34.973Z,2.63
2023-05-19T13:48:38.047Z,2.30
2023-05-19T13:53:41.231Z,2.33
2023-05-19T13:58:46.098Z,2.55
2023-05-19T14:03:49.747Z,2.20
2023-05-19T14:08:53.309Z,2.17
2023-05-19T14:13:58.053Z,2.30
2023-05-19T14:19:01.191Z,2.60
2023-05-19T14:24:04.489Z,2.60
2023-05-19T14:29:08.898Z,2.30
2023-05-19T14:34:12.418Z,2.38
2023-05-19T14:39:15.585Z,2.80
2023-05-19T14:44:20.292Z,2.60
2023-05-19T14:49:23.763Z,2.20
2023-05-19T14:54:27.242Z,2.67
2023-05-19T14:59:32.022Z,2.40
2023-05-19T15:04:35.111Z,2.28
2023-05-19T15:09:38.415Z,2.20
2023-05-19T15:14:42.822Z,2.10
2023-05-19T15:19:46.152Z,2.00
2023-05-19T15:24:49.383Z,2.30
2023-05-19T15:29:53.914Z,1.90
2023-05-19T15:34:57.351Z,2.03
2023-05-19T15:40:00.416Z,2.20
2023-05-19T15:45:05.784Z,2.15
2023-05-19T15:50:10.073Z,1.98
2023-05-19T15:55:13.155Z,2.22
2023-05-19T16:00:17.793Z,2.20
2023-05-19T16:05:21.072Z,2.30
2023-05-19T16:10:24.223Z,2.55
2023-05-19T16:15:28.626Z,2.40
2023-05-19T16:20:31.896Z,2.20
2023-05-19T16:25:35.349Z,2.50
2023-05-19T16:30:39.785Z,2.50
2023-05-19T16:35:43.303Z,3.00
2023-05-19T16:40:46.713Z,2.40
2023-05-19T16:45:51.108Z,2.20
2023-05-19T16:50:54.179Z,2.17
2023-05-19T16:55:58.978Z,2.35
2023-05-19T17:01:03.978Z,2.17
2023-05-19T17:06:07.526Z,2.20
2023-05-19T17:11:10.563Z,2.10
2023-05-19T17:16:15.048Z,2.10
2023-05-19T17:21:18.476Z,1.88
2023-05-19T17:26:22.067Z,2.15
2023-05-19T17:31:26.684Z,2.38
2023-05-19T17:36:30.262Z,2.10
2023-05-19T17:41:33.746Z,1.97
2023-05-19T17:46:39.209Z,2.23
2023-05-19T17:51:42.996Z,2.20
2023-05-19T17:56:46.479Z,1.90
2023-05-19T18:01:51.915Z,2.00
2023-05-19T18:06:56.653Z,2.47
2023-05-19T18:12:01.997Z,2.10
2023-05-19T18:17:06.943Z,1.93
2023-05-19T18:22:12.796Z,2.00
2023-05-19T18:27:15.876Z,1.87
2023-05-19T18:32:20.234Z,2.00
2023-05-19T18:37:23.501Z,2.20
2023-05-19T18:42:26.566Z,2.00
2023-05-19T18:47:31.412Z,1.90
2023-05-19T18:52:35.013Z,1.80
2023-05-19T18:57:38.085Z,2.03
2023-05-19T19:02:42.897Z,1.90
2023-05-19T19:07:46.417Z,2.03
2023-05-19T19:12:49.551Z,1.97
2023-05-19T19:17:53.983Z,2.00
2023-05-19T19:22:58.657Z,2.00
2023-05-19T19:28:02.400Z,2.03
2023-05-19T19:33:07.054Z,2.00
2023-05-19T19:38:10.223Z,2.10
2023-05-19T19:43:13.615Z,2.00
2023-05-19T19:48:18.247Z,2.10
2023-05-19T19:53:21.512Z,2.00
2023-05-19T19:58:25.032Z,1.90
2023-05-19T20:03:30.202Z,2.37
2023-05-19T20:08:33.542Z,2.17
2023-05-19T20:13:36.772Z,3.00
2023-05-19T20:18:41.412Z,2.67
2023-05-19T20:23:44.630Z,2.40
2023-05-19T20:28:47.749Z,2.77
2023-05-19T20:33:52.271Z,2.50
2023-05-19T20:38:55.374Z,2.60
2023-05-19T20:43:58.410Z,2.20
2023-05-19T20:49:02.961Z,2.30
2023-05-19T20:54:07.533Z,2.30
2023-05-19T20:59:10.768Z,2.50
2023-05-19T21:04:15.261Z,2.60
2023-05-19T21:09:18.830Z,2.40
2023-05-19T21:14:22.139Z,2.30
2023-05-19T21:19:26.945Z,2.10
2023-05-19T21:24:31.381Z,2.50
2023-05-19T21:29:34.894Z,2.40
2023-05-19T21:34:39.748Z,2.50
2023-05-19T21:39:43.059Z,2.37
2023-05-19T21:44:46.767Z,2.37
2023-05-19T21:49:51.639Z,2.20
2023-05-19T21:54:56.434Z,2.50
2023-05-19T21:59:59.872Z,2.30
2023-05-19T22:05:04.410Z,2.70
2023-05-19T22:10:08.131Z,2.53
2023-05-19T22:15:13.288Z,2.50
2023-05-19T22:20:18.100Z,2.80
2023-05-19T22:25:21.577Z,2.67
2023-05-19T22:30:25.122Z,2.80
2023-05-19T22:35:29.776Z,2.77
2023-05-19T22:40:33.500Z,2.80
2023-05-19T22:45:37.067Z,2.97
2023-05-19T22:50:42.033Z,2.90
2023-05-19T22:55:45.473Z,2.90
2023-05-19T23:00:48.582Z,2.70
2023-05-19T23:05:52.990Z,2.97
2023-05-19T23:11:01.155Z,3.13
2023-05-19T23:16:04.954Z,3.00
2023-05-19T23:21:09.776Z,3.17
2023-05-19T23:26:13.649Z,3.10
2023-05-19T23:31:17.240Z,3.20
2023-05-19T23:36:22.126Z,3.20
2023-05-19T23:41:26.072Z,3.67
2023-05-19T23:46:29.548Z,3.57
2023-05-19T23:51:34.613Z,3.30
2023-05-19T23:56:37.678Z,3.07
